createdAt,value
2022-12-08T00:01:59.255Z,17.00
2022-12-08T00:05:40.483Z,17.57
2022-12-08T00:09:01.670Z,17.20
2022-12-08T00:12:07.389Z,17.20
2022-12-08T00:15:10.248Z,17.13
2022-12-08T00:18:12.929Z,16.77
2022-12-08T00:21:15.894Z,15.83
2022-12-08T00:24:19.379Z,16.35
2022-12-08T00:27:22.152Z,16.02
2022-12-08T00:30:24.895Z,15.55
2022-12-08T00:33:28.919Z,17.73
2022-12-08T00:36:31.769Z,16.07
2022-12-08T00:39:34.603Z,18.33
2022-12-08T00:42:37.306Z,16.52
2022-12-08T00:45:40.829Z,16.70
2022-12-08T00:48:43.489Z,15.23
2022-12-08T00:51:46.460Z,16.60
2022-12-08T00:54:49.100Z,14.57
2022-12-08T00:57:51.860Z,15.27
2022-12-08T01:00:54.715Z,16.02
2022-12-08T01:03:57.560Z,16.97
2022-12-08T01:07:00.387Z,15.17
2022-12-08T01:10:03.541Z,17.45
2022-12-08T01:13:06.747Z,15.82
2022-12-08T01:16:10.481Z,14.70
2022-12-08T01:19:15.521Z,15.77
2022-12-08T01:22:18.239Z,16.53
2022-12-08T01:25:20.958Z,15.48
2022-12-08T01:28:24.005Z,14.20
2022-12-08T01:31:26.817Z,15.20
2022-12-08T01:34:29.610Z,14.03
2022-12-08T01:37:32.304Z,15.27
2022-12-08T01:40:35.107Z,15.05
2022-12-08T01:43:58.674Z,15.90
2022-12-08T01:47:01.502Z,15.77
2022-12-08T01:50:08.211Z,15.53
2022-12-08T01:53:19.921Z,15.07
2022-12-08T01:56:40.482Z,15.05
2022-12-08T01:59:49.766Z,14.15
2022-12-08T02:02:57.689Z,15.32
2022-12-08T02:06:00.628Z,16.53
2022-12-08T02:09:03.947Z,14.80
2022-12-08T02:12:07.130Z,15.13
2022-12-08T02:15:10.250Z,13.98
2022-12-08T02:18:27.887Z,14.80
2022-12-08T02:22:00.769Z,16.10
2022-12-08T02:25:20.542Z,14.20
2022-12-08T02:28:55.124Z,14.10
2022-12-08T02:32:33.022Z,14.48
2022-12-08T02:36:06.155Z,14.85
2022-12-08T02:39:25.779Z,13.10
2022-12-08T02:42:38.145Z,14.00
2022-12-08T02:45:50.462Z,15.55
2022-12-08T02:48:53.687Z,13.75
2022-12-08T02:52:28.505Z,13.93
2022-12-08T02:55:43.615Z,14.40
2022-12-08T02:59:14.877Z,12.50
2022-12-08T03:02:35.559Z,13.57
2022-12-08T03:06:13.200Z,13.35
2022-12-08T03:09:35.465Z,13.60
2022-12-08T03:12:43.874Z,12.90
2022-12-08T03:16:07.492Z,14.73
2022-12-08T03:19:20.204Z,12.93
2022-12-08T03:22:25.652Z,12.52
2022-12-08T03:25:33.800Z,14.07
2022-12-08T03:28:36.591Z,12.53
2022-12-08T03:31:44.798Z,12.60
2022-12-08T03:34:50.691Z,13.80
2022-12-08T03:38:02.717Z,12.98
2022-12-08T03:41:20.802Z,13.05
2022-12-08T03:44:23.522Z,13.53
2022-12-08T03:47:26.268Z,15.97
2022-12-08T03:50:28.973Z,13.25
2022-12-08T03:53:31.671Z,13.30
2022-12-08T03:56:38.986Z,14.50
2022-12-08T03:59:41.790Z,11.83
2022-12-08T04:02:44.617Z,13.20
2022-12-08T04:05:47.370Z,13.07
2022-12-08T04:08:51.073Z,13.48
2022-12-08T04:11:53.753Z,13.63
2022-12-08T04:14:56.492Z,12.07
2022-12-08T04:17:59.202Z,13.27
2022-12-08T04:21:02.247Z,12.70
2022-12-08T04:24:05.090Z,13.05
2022-12-08T04:27:07.808Z,13.18
2022-12-08T04:30:11.084Z,13.50
2022-12-08T04:33:13.826Z,12.97
2022-12-08T04:36:16.589Z,13.93
2022-12-08T04:39:19.383Z,12.10
2022-12-08T04:42:22.090Z,13.13
2022-12-08T04:45:24.833Z,11.77
2022-12-08T04:48:27.734Z,12.13
2022-12-08T04:51:30.501Z,12.75
2022-12-08T04:54:33.330Z,11.68
2022-12-08T04:57:36.242Z,13.13
2022-12-08T05:00:38.970Z,11.63
2022-12-08T05:03:42.023Z,12.07
2022-12-08T05:06:44.769Z,11.38
2022-12-08T05:09:49.007Z,11.82
2022-12-08T05:12:51.756Z,12.38
2022-12-08T05:15:54.510Z,12.00
2022-12-08T05:18:57.195Z,10.77
2022-12-08T05:22:00.797Z,11.07
2022-12-08T05:25:03.695Z,11.20
2022-12-08T05:28:39.457Z,12.60
2022-12-08T05:31:29.725Z,12.57
2022-12-08T05:34:32.539Z,10.93
2022-12-08T05:37:35.357Z,12.30
2022-12-08T05:40:39.430Z,11.02
2022-12-08T05:43:42.560Z,12.27
2022-12-08T05:46:45.402Z,11.27
2022-12-08T05:49:48.210Z,12.20
2022-12-08T05:52:50.896Z,12.30
2022-12-08T05:55:54.086Z,12.05
2022-12-08T05:58:56.880Z,11.32
2022-12-08T06:01:59.778Z,10.47
2022-12-08T06:05:03.527Z,11.43
2022-12-08T06:08:06.261Z,12.07
2022-12-08T06:11:09.800Z,12.43
2022-12-08T06:14:12.785Z,11.20
2022-12-08T06:17:15.543Z,13.23
2022-12-08T06:20:18.504Z,11.10
2022-12-08T06:23:21.185Z,10.27
2022-12-08T06:26:24.134Z,10.60
2022-12-08T06:29:26.967Z,11.50
2022-12-08T06:32:29.826Z,9.83
2022-12-08T06:35:32.600Z,11.87
2022-12-08T06:38:38.240Z,10.20
2022-12-08T06:42:03.249Z,12.07
2022-12-08T06:45:06.471Z,12.77
2022-12-08T06:48:09.282Z,11.40
2022-12-08T06:51:17.578Z,10.67
2022-12-08T06:54:21.333Z,10.68
2022-12-08T06:57:24.803Z,10.70
2022-12-08T07:00:27.609Z,12.07
2022-12-08T07:03:30.404Z,10.77
2022-12-08T07:06:33.197Z,12.10
2022-12-08T07:09:36.921Z,11.43
2022-12-08T07:12:39.974Z,12.13
2022-12-08T07:15:42.692Z,12.68
2022-12-08T07:18:45.554Z,10.83
2022-12-08T07:21:48.733Z,11.77
2022-12-08T07:24:51.752Z,10.65
2022-12-08T07:27:55.270Z,13.70
2022-12-08T07:30:58.133Z,12.77
2022-12-08T07:34:01.499Z,12.37
2022-12-08T07:37:04.269Z,10.80
2022-12-08T07:40:08.656Z,10.55
2022-12-08T07:43:11.440Z,11.25
2022-12-08T07:46:16.223Z,10.90
2022-12-08T07:49:19.551Z,12.87
2022-12-08T07:52:22.258Z,9.57
2022-12-08T07:55:25.606Z,10.50
2022-12-08T07:58:28.517Z,11.27
2022-12-08T08:01:33.303Z,10.82
2022-12-08T08:04:36.068Z,13.43
2022-12-08T08:07:42.287Z,13.43
2022-12-08T08:10:46.473Z,12.35
2022-12-08T08:13:50.350Z,13.48
2022-12-08T08:16:53.146Z,10.52
2022-12-08T08:19:56.411Z,13.70
2022-12-08T08:23:01.786Z,11.10
2022-12-08T08:26:05.746Z,13.05
2022-12-08T08:29:08.486Z,13.02
2022-12-08T08:32:11.627Z,13.63
2022-12-08T08:35:14.485Z,14.00
2022-12-08T08:38:17.354Z,13.90
2022-12-08T08:41:20.202Z,12.05
2022-12-08T08:44:28.440Z,14.13
2022-12-08T08:47:31.626Z,13.10
2022-12-08T08:50:37.716Z,12.80
2022-12-08T08:53:41.376Z,12.77
2022-12-08T08:56:44.219Z,12.93
2022-12-08T08:59:47.079Z,16.17
2022-12-08T09:02:49.842Z,12.00
2022-12-08T09:05:53.100Z,13.63
2022-12-08T09:08:56.926Z,14.93
2022-12-08T09:11:59.633Z,13.38
2022-12-08T09:15:02.609Z,12.70
2022-12-08T09:18:09.534Z,17.17
2022-12-08T09:21:20.493Z,14.97
2022-12-08T09:24:23.548Z,16.57
2022-12-08T09:27:26.265Z,14.88
2022-12-08T09:30:29.128Z,14.40
2022-12-08T09:33:31.916Z,15.60
2022-12-08T09:36:34.644Z,15.47
2022-12-08T09:39:37.637Z,15.57
2022-12-08T09:43:21.808Z,17.05
2022-12-08T09:46:29.021Z,14.38
2022-12-08T09:49:42.143Z,16.88
2022-12-08T09:53:00.091Z,14.23
2022-12-08T09:56:05.569Z,16.10
2022-12-08T09:59:27.778Z,17.35
2022-12-08T10:02:31.183Z,12.65
2022-12-08T10:05:41.768Z,14.05
2022-12-08T10:08:59.621Z,14.43
2022-12-08T10:12:40.016Z,15.00
2022-12-08T10:15:47.495Z,17.70
2022-12-08T10:19:01.662Z,11.50
2022-12-08T10:22:15.927Z,11.45
2022-12-08T10:25:22.517Z,14.33
2022-12-08T10:28:25.526Z,11.37
2022-12-08T10:31:30.878Z,16.52
2022-12-08T10:34:33.559Z,10.98
2022-12-08T10:37:36.564Z,11.55
2022-12-08T10:40:45.297Z,12.30
2022-12-08T10:43:54.519Z,12.00
2022-12-08T10:46:57.437Z,11.57
2022-12-08T10:50:23.869Z,14.40
2022-12-08T10:53:44.655Z,9.90
2022-12-08T10:56:57.420Z,11.93
2022-12-08T11:00:00.083Z,13.40
2022-12-08T11:03:04.933Z,10.27
2022-12-08T11:06:20.763Z,14.07
2022-12-08T11:09:38.952Z,10.07
2022-12-08T11:12:44.126Z,11.80
2022-12-08T11:15:47.583Z,9.83
2022-12-08T11:18:57.140Z,13.77
2022-12-08T11:21:59.858Z,11.23
2022-12-08T11:25:10.804Z,10.60
2022-12-08T11:28:13.585Z,10.47
2022-12-08T11:31:37.083Z,14.97
2022-12-08T11:34:52.141Z,12.65
2022-12-08T11:38:23.086Z,9.95
2022-12-08T11:41:38.498Z,11.93
2022-12-08T11:44:55.002Z,10.67
2022-12-08T11:48:06.645Z,13.37
2022-12-08T11:51:17.172Z,10.45
2022-12-08T13:28:17.425Z,12.02
2022-12-08T13:31:52.248Z,11.20
2022-12-08T13:35:00.630Z,11.25
2022-12-08T13:38:03.730Z,10.97
2022-12-08T13:41:17.278Z,12.53
2022-12-08T13:48:26.992Z,12.45
2022-12-08T13:58:46.254Z,14.37
2022-12-08T14:01:50.972Z,12.63
2022-12-08T14:08:57.809Z,9.02
2022-12-08T14:11:56.205Z,8.93
2022-12-08T14:15:06.158Z,9.67
2022-12-08T14:18:24.710Z,13.40
2022-12-08T14:21:35.990Z,10.75
2022-12-08T14:24:40.109Z,14.75
2022-12-08T14:27:43.461Z,14.20
2022-12-08T14:30:48.748Z,14.83
2022-12-08T14:33:56.269Z,14.40
2022-12-08T14:36:59.435Z,17.25
2022-12-08T14:40:22.898Z,19.60
2022-12-08T14:43:28.889Z,24.60
2022-12-08T14:46:31.601Z,14.53
2022-12-08T14:49:36.805Z,22.92
2022-12-08T14:52:44.527Z,19.40
2022-12-08T14:55:48.556Z,14.65
2022-12-08T14:59:04.982Z,15.80
2022-12-08T15:02:26.615Z,16.27
2022-12-08T15:05:31.285Z,16.05
2022-12-08T15:08:50.103Z,15.13
2022-12-08T15:12:04.784Z,15.40
2022-12-08T15:15:10.124Z,17.73
2022-12-08T15:18:28.876Z,17.20
2022-12-08T15:21:37.450Z,11.55
2022-12-08T15:24:40.121Z,15.70
2022-12-08T15:27:50.158Z,12.43
2022-12-08T15:30:54.224Z,11.50
2022-12-08T15:33:56.924Z,13.93
2022-12-08T15:36:59.649Z,10.60
2022-12-08T15:40:02.735Z,12.27
2022-12-08T15:43:05.755Z,12.38
2022-12-08T15:46:08.510Z,16.60
2022-12-08T15:49:17.568Z,11.63
2022-12-08T15:52:23.273Z,12.55
2022-12-08T15:55:25.981Z,13.48
2022-12-08T15:58:52.886Z,15.90
2022-12-08T16:01:52.485Z,9.87
2022-12-08T16:12:09.381Z,12.60
2022-12-08T16:18:38.961Z,12.80
2022-12-08T16:25:22.326Z,11.38
2022-12-08T16:28:52.828Z,10.30
2022-12-08T16:31:48.879Z,9.55
2022-12-08T16:34:52.296Z,9.77
2022-12-08T16:37:55.008Z,10.67
2022-12-08T16:41:15.900Z,11.15
2022-12-08T16:44:18.794Z,14.63
2022-12-08T16:47:21.938Z,13.43
2022-12-08T16:50:32.339Z,9.53
2022-12-08T16:53:34.990Z,11.57
2022-12-08T16:56:37.742Z,14.48
2022-12-08T16:59:40.828Z,10.95
2022-12-08T17:02:45.341Z,9.63
2022-12-08T17:05:48.192Z,13.20
2022-12-08T17:08:51.343Z,11.00
2022-12-08T17:11:58.805Z,15.50
2022-12-08T17:15:08.908Z,11.85
2022-12-08T17:18:12.446Z,11.85
2022-12-08T17:21:17.557Z,10.23
2022-12-08T17:24:22.287Z,10.07
2022-12-08T17:27:25.780Z,13.18
2022-12-08T17:30:28.859Z,11.48
2022-12-08T17:33:31.978Z,10.32
2022-12-08T17:36:36.212Z,15.67
2022-12-08T17:39:40.030Z,11.33
2022-12-08T17:42:42.824Z,8.73
2022-12-08T17:45:48.151Z,11.43
2022-12-08T17:48:51.490Z,11.32
2022-12-08T17:51:56.992Z,9.17
2022-12-08T17:55:00.363Z,8.63
2022-12-08T17:58:03.933Z,10.55
2022-12-08T18:01:10.748Z,10.98
2022-12-08T18:04:14.157Z,9.18
2022-12-08T18:07:17.852Z,11.07
2022-12-08T18:10:20.801Z,10.67
2022-12-08T18:13:25.071Z,10.57
2022-12-08T18:16:28.776Z,10.65
2022-12-08T18:19:32.105Z,9.80
2022-12-08T18:22:35.388Z,10.07
2022-12-08T18:25:38.164Z,10.27
2022-12-08T18:28:41.845Z,10.50
2022-12-08T18:31:48.973Z,11.43
2022-12-08T18:34:52.401Z,10.07
2022-12-08T18:37:56.430Z,10.87
2022-12-08T18:41:12.922Z,10.13
2022-12-08T18:44:16.002Z,9.43
2022-12-08T18:47:19.892Z,11.70
2022-12-08T18:50:23.681Z,8.60
2022-12-08T18:53:27.143Z,10.33
2022-12-08T18:56:32.936Z,10.60
2022-12-08T18:59:37.083Z,12.07
2022-12-08T19:02:41.840Z,9.85
2022-12-08T19:05:46.195Z,9.10
2022-12-08T19:08:51.243Z,9.60
2022-12-08T19:11:55.323Z,10.07
2022-12-08T19:14:58.591Z,9.95
2022-12-08T19:18:02.509Z,11.52
2022-12-08T19:21:06.001Z,9.65
2022-12-08T19:24:10.966Z,9.27
2022-12-08T19:27:16.467Z,10.77
2022-12-08T19:30:20.631Z,10.35
2022-12-08T19:33:43.793Z,10.00
2022-12-08T19:36:48.956Z,9.75
2022-12-08T19:40:14.596Z,9.67
2022-12-08T19:43:39.263Z,10.90
2022-12-08T19:46:43.137Z,10.50
2022-12-08T19:49:46.955Z,8.07
2022-12-08T19:52:50.755Z,10.02
2022-12-08T19:55:54.788Z,9.17
2022-12-08T19:58:58.217Z,11.73
2022-12-08T20:02:02.500Z,10.55
2022-12-08T20:05:07.327Z,11.00
2022-12-08T20:08:11.470Z,9.63
2022-12-08T20:11:15.220Z,11.03
2022-12-08T20:14:19.318Z,10.73
2022-12-08T20:17:22.861Z,10.00
2022-12-08T20:20:26.621Z,9.80
2022-12-08T20:23:30.560Z,10.02
2022-12-08T20:26:35.702Z,9.90
2022-12-08T20:29:40.218Z,10.77
2022-12-08T20:32:45.722Z,10.82
2022-12-08T20:36:01.435Z,9.88
2022-12-08T20:39:05.003Z,11.10
2022-12-08T20:42:13.631Z,11.53
2022-12-08T20:45:17.472Z,10.43
2022-12-08T20:48:21.583Z,9.68
2022-12-08T20:51:31.437Z,10.27
2022-12-08T20:54:35.993Z,11.00
2022-12-08T20:57:39.540Z,12.40
2022-12-08T21:00:43.198Z,14.47
2022-12-08T21:03:47.621Z,10.10
2022-12-08T21:06:50.913Z,12.52
2022-12-08T21:09:54.864Z,14.13
2022-12-08T21:12:58.121Z,11.97
2022-12-08T21:16:01.461Z,13.03
2022-12-08T21:19:05.272Z,13.02
2022-12-08T21:22:08.218Z,15.75
2022-12-08T21:25:11.296Z,15.00
2022-12-08T21:28:14.299Z,12.07
2022-12-08T21:31:19.143Z,11.80
2022-12-08T21:34:22.205Z,13.48
2022-12-08T21:37:25.243Z,11.40
2022-12-08T21:40:28.938Z,11.35
2022-12-08T21:43:31.898Z,10.07
2022-12-08T21:46:34.825Z,11.37
2022-12-08T21:49:38.276Z,11.15
2022-12-08T21:52:43.336Z,11.95
2022-12-08T21:55:46.596Z,11.45
2022-12-08T21:58:50.751Z,10.13
2022-12-08T22:01:53.748Z,12.90
2022-12-08T22:04:56.652Z,10.63
2022-12-08T22:07:59.775Z,10.23
2022-12-08T22:11:02.808Z,9.93
2022-12-08T22:14:09.600Z,9.90
2022-12-08T22:17:17.561Z,11.80
2022-12-08T22:20:20.999Z,10.45
2022-12-08T22:23:24.270Z,10.18
2022-12-08T22:26:27.438Z,10.30
2022-12-08T22:29:30.465Z,11.63
2022-12-08T22:32:33.541Z,9.77
2022-12-08T22:35:36.680Z,11.77
2022-12-08T22:38:40.658Z,11.07
2022-12-08T22:41:43.770Z,11.18
2022-12-08T22:44:46.767Z,11.97
2022-12-08T22:47:49.740Z,11.00
2022-12-08T22:50:59.783Z,12.02
2022-12-08T22:54:02.898Z,11.90
2022-12-08T22:57:06.137Z,11.63
2022-12-08T23:00:11.986Z,9.83
2022-12-08T23:03:15.611Z,10.33
2022-12-08T23:06:18.564Z,12.40
2022-12-08T23:09:23.982Z,12.32
2022-12-08T23:12:26.981Z,10.93
2022-12-08T23:15:29.588Z,9.97
2022-12-08T23:18:32.231Z,11.13
2022-12-08T23:21:34.885Z,10.48
2022-12-08T23:24:37.652Z,11.15
2022-12-08T23:27:40.747Z,10.85
2022-12-08T23:30:44.342Z,10.97
2022-12-08T23:33:49.908Z,10.00
2022-12-08T23:36:54.750Z,9.93
2022-12-08T23:39:57.713Z,10.50
2022-12-08T23:43:00.412Z,10.75
2022-12-08T23:46:03.783Z,10.97
2022-12-08T23:49:07.071Z,11.07
2022-12-08T23:52:13.471Z,10.30
2022-12-08T23:55:16.214Z,10.27
2022-12-08T23:58:19.134Z,12.77
